createdAt,value
2018-12-12T00:00:32.547Z,1014.99
2018-12-12T00:01:32.616Z,1014.96
2018-12-12T00:02:31.779Z,1015.03
2018-12-12T00:03:32.100Z,1015.01
2018-12-12T00:04:31.783Z,1014.99
2018-12-12T00:05:31.814Z,1014.96
2018-12-12T00:06:31.752Z,1014.97
2018-12-12T00:07:31.830Z,1015.04
2018-12-12T00:08:31.767Z,1014.96
2018-12-12T00:09:31.764Z,1014.98
2018-12-12T00:10:31.756Z,1014.98
2018-12-12T00:11:31.765Z,1014.96
2018-12-12T00:12:31.767Z,1014.97
2018-12-12T00:13:31.819Z,1014.99
2018-12-12T00:14:31.784Z,1014.97
2018-12-12T00:15:31.781Z,1014.97
2018-12-12T00:16:32.513Z,1014.94
2018-12-12T00:17:31.774Z,1014.97
2018-12-12T00:18:31.782Z,1014.93
2018-12-12T00:19:31.990Z,1014.97
2018-12-12T00:20:31.866Z,1014.92
2018-12-12T00:21:31.817Z,1014.91
2018-12-12T00:22:31.788Z,1014.89
2018-12-12T00:23:31.809Z,1014.90
2018-12-12T00:24:31.859Z,1014.91
2018-12-12T00:25:31.813Z,1014.90
2018-12-12T00:26:31.813Z,1014.92
2018-12-12T00:27:31.852Z,1014.96
2018-12-12T00:28:31.841Z,1014.98
2018-12-12T00:29:31.814Z,1015.01
2018-12-12T00:30:31.884Z,1015.06
2018-12-12T00:31:31.926Z,1015.04
2018-12-12T00:32:32.004Z,1014.99
2018-12-12T00:33:31.831Z,1015.11
2018-12-12T00:34:31.906Z,1015.01
2018-12-12T00:35:31.971Z,1015.07
2018-12-12T00:36:31.908Z,1015.07
2018-12-12T00:37:31.943Z,1015.05
2018-12-12T00:38:31.880Z,1015.05
2018-12-12T00:39:31.885Z,1015.03
2018-12-12T00:40:32.024Z,1015.01
2018-12-12T00:41:31.984Z,1015.11
2018-12-12T00:42:31.867Z,1015.11
2018-12-12T00:43:31.895Z,1015.09
2018-12-12T00:44:31.944Z,1015.16
2018-12-12T00:45:31.972Z,1015.05
2018-12-12T00:46:31.876Z,1015.09
2018-12-12T00:47:31.864Z,1015.10
2018-12-12T00:48:31.904Z,1015.13
2018-12-12T00:49:31.975Z,1015.14
2018-12-12T00:50:32.502Z,1015.11
2018-12-12T00:51:32.054Z,1015.13
2018-12-12T00:52:32.046Z,1015.13
2018-12-12T00:53:31.911Z,1015.13
2018-12-12T00:54:31.907Z,1015.11
2018-12-12T00:55:32.000Z,1015.12
2018-12-12T00:56:31.948Z,1015.20
2018-12-12T00:57:31.899Z,1015.22
2018-12-12T00:58:31.923Z,1015.17
2018-12-12T00:59:31.966Z,1015.23
2018-12-12T01:00:31.943Z,1015.29
2018-12-12T01:01:31.928Z,1015.25
2018-12-12T01:02:32.126Z,1015.25
2018-12-12T01:03:31.945Z,1015.23
2018-12-12T01:04:32.082Z,1015.25
2018-12-12T01:05:33.035Z,1015.19
2018-12-12T01:06:31.961Z,1015.25
2018-12-12T01:07:31.944Z,1015.26
2018-12-12T01:08:32.098Z,1015.25
2018-12-12T01:09:31.997Z,1015.26
2018-12-12T01:10:31.941Z,1015.30
2018-12-12T01:11:31.945Z,1015.27
2018-12-12T01:12:31.957Z,1015.33
2018-12-12T01:13:31.962Z,1015.31
2018-12-12T01:14:32.023Z,1015.32
2018-12-12T01:15:31.999Z,1015.36
2018-12-12T01:16:31.989Z,1015.40
2018-12-12T01:17:31.988Z,1015.46
2018-12-12T01:18:31.978Z,1015.34
2018-12-12T01:19:32.055Z,1015.43
2018-12-12T01:20:32.012Z,1015.40
2018-12-12T01:21:31.980Z,1015.38
2018-12-12T01:22:32.003Z,1015.44
2018-12-12T01:23:32.023Z,1015.43
2018-12-12T01:24:31.999Z,1015.56
2018-12-12T01:25:32.039Z,1015.51
2018-12-12T01:26:32.022Z,1015.51
2018-12-12T01:27:32.077Z,1015.58
2018-12-12T01:28:32.048Z,1015.50
2018-12-12T01:29:32.020Z,1015.58
2018-12-12T01:30:32.014Z,1015.58
2018-12-12T01:31:32.045Z,1015.55
2018-12-12T01:32:32.038Z,1015.56
2018-12-12T01:33:33.021Z,1015.60
2018-12-12T01:34:32.407Z,1015.63
2018-12-12T01:35:32.996Z,1015.64
2018-12-12T01:36:32.059Z,1015.58
2018-12-12T01:37:32.077Z,1015.57
2018-12-12T01:38:32.041Z,1015.62
2018-12-12T01:39:32.039Z,1015.61
2018-12-12T01:40:32.065Z,1015.60
2018-12-12T01:41:32.121Z,1015.71
2018-12-12T01:42:32.053Z,1015.61
2018-12-12T01:43:32.064Z,1015.57
2018-12-12T01:44:32.064Z,1015.57
2018-12-12T01:45:32.069Z,1015.60
2018-12-12T01:46:32.106Z,1015.61
2018-12-12T01:47:32.144Z,1015.61
2018-12-12T01:48:32.086Z,1015.59
2018-12-12T01:49:32.103Z,1015.62
2018-12-12T01:50:32.173Z,1015.60
2018-12-12T01:51:32.119Z,1015.58
2018-12-12T01:52:32.168Z,1015.62
2018-12-12T01:53:33.122Z,1015.59
2018-12-12T01:54:32.101Z,1015.62
2018-12-12T01:55:32.103Z,1015.67
2018-12-12T01:56:32.151Z,1015.65
2018-12-12T01:57:32.769Z,1015.64
2018-12-12T01:58:32.291Z,1015.74
2018-12-12T01:59:32.263Z,1015.68
2018-12-12T02:00:32.997Z,1015.71
2018-12-12T02:01:32.701Z,1015.69
2018-12-12T02:02:32.300Z,1015.68
2018-12-12T02:03:32.153Z,1015.66
2018-12-12T02:04:32.371Z,1015.70
2018-12-12T02:05:32.147Z,1015.68
2018-12-12T02:06:32.173Z,1015.67
2018-12-12T02:07:32.157Z,1015.67
2018-12-12T02:08:32.209Z,1015.76
2018-12-12T02:09:32.233Z,1015.74
2018-12-12T02:10:32.161Z,1015.78
2018-12-12T02:11:32.154Z,1015.74
2018-12-12T02:12:32.169Z,1015.79
2018-12-12T02:13:32.200Z,1015.82
2018-12-12T02:14:32.181Z,1015.79
2018-12-12T02:15:32.243Z,1015.87
2018-12-12T02:16:32.184Z,1015.81
2018-12-12T02:17:32.204Z,1015.83
2018-12-12T02:18:32.240Z,1015.82
2018-12-12T02:19:32.256Z,1015.86
2018-12-12T02:20:32.193Z,1015.83
2018-12-12T02:21:32.275Z,1015.92
2018-12-12T02:22:32.208Z,1015.86
2018-12-12T02:23:32.755Z,1015.85
2018-12-12T02:24:32.202Z,1015.89
2018-12-12T02:25:32.737Z,1015.87
2018-12-12T02:26:32.265Z,1015.91
2018-12-12T02:27:32.228Z,1015.91
2018-12-12T02:28:32.243Z,1015.92
2018-12-12T02:29:32.270Z,1015.90
2018-12-12T02:30:32.230Z,1015.96
2018-12-12T02:31:32.276Z,1015.95
2018-12-12T02:32:32.269Z,1015.97
2018-12-12T02:33:32.238Z,1016.00
2018-12-12T02:34:32.243Z,1016.03
2018-12-12T02:35:32.266Z,1016.02
2018-12-12T02:36:32.252Z,1016.06
2018-12-12T02:37:32.281Z,1016.05
2018-12-12T02:38:32.259Z,1016.04
2018-12-12T02:39:32.281Z,1016.03
2018-12-12T02:40:32.261Z,1016.04
2018-12-12T02:41:32.335Z,1016.07
2018-12-12T02:42:32.345Z,1016.05
2018-12-12T02:43:32.319Z,1016.09
2018-12-12T02:44:32.309Z,1016.11
2018-12-12T02:45:32.292Z,1016.11
2018-12-12T02:46:32.283Z,1016.05
2018-12-12T02:47:32.350Z,1016.10
2018-12-12T02:48:32.301Z,1016.20
2018-12-12T02:49:32.473Z,1016.14
2018-12-12T02:50:32.295Z,1016.17
2018-12-12T02:51:32.333Z,1016.17
2018-12-12T02:52:32.317Z,1016.15
2018-12-12T02:53:32.362Z,1016.18
2018-12-12T02:54:32.318Z,1016.17
2018-12-12T02:55:32.349Z,1016.17
2018-12-12T02:56:32.334Z,1016.18
2018-12-12T02:57:32.330Z,1016.19
2018-12-12T02:58:32.348Z,1016.22
2018-12-12T02:59:32.362Z,1016.21
2018-12-12T03:00:32.370Z,1016.21
2018-12-12T03:01:32.423Z,1016.25
2018-12-12T03:02:32.383Z,1016.22
2018-12-12T03:03:32.352Z,1016.18
2018-12-12T03:04:32.365Z,1016.21
2018-12-12T03:05:32.388Z,1016.32
2018-12-12T03:06:32.362Z,1016.22
2018-12-12T03:07:32.408Z,1016.24
2018-12-12T03:08:32.400Z,1016.18
2018-12-12T03:09:32.375Z,1016.21
2018-12-12T03:10:32.393Z,1016.21
2018-12-12T03:11:32.526Z,1016.22
2018-12-12T03:12:32.435Z,1016.25
2018-12-12T03:13:32.521Z,1016.22
2018-12-12T03:14:32.470Z,1016.20
2018-12-12T03:15:32.405Z,1016.20
2018-12-12T03:16:32.410Z,1016.22
2018-12-12T03:17:32.402Z,1016.23
2018-12-12T03:18:32.440Z,1016.27
2018-12-12T03:19:32.594Z,1016.21
2018-12-12T03:20:32.417Z,1016.24
2018-12-12T03:21:32.410Z,1016.24
2018-12-12T03:22:32.455Z,1016.29
2018-12-12T03:23:32.461Z,1016.35
2018-12-12T03:24:32.445Z,1016.38
2018-12-12T03:25:32.453Z,1016.38
2018-12-12T03:26:32.434Z,1016.39
2018-12-12T03:27:32.441Z,1016.46
2018-12-12T03:28:32.523Z,1016.45
2018-12-12T03:29:32.476Z,1016.47
2018-12-12T03:30:32.449Z,1016.47
2018-12-12T03:31:32.557Z,1016.44
2018-12-12T03:32:32.477Z,1016.46
2018-12-12T03:33:32.486Z,1016.49
2018-12-12T03:34:32.491Z,1016.53
2018-12-12T03:35:32.555Z,1016.55
2018-12-12T03:36:32.471Z,1016.51
2018-12-12T03:37:32.471Z,1016.48
2018-12-12T03:38:32.477Z,1016.56
2018-12-12T03:39:32.483Z,1016.58
2018-12-12T03:40:32.484Z,1016.58
2018-12-12T03:41:32.548Z,1016.57
2018-12-12T03:42:32.495Z,1016.54
2018-12-12T03:43:32.704Z,1016.54
2018-12-12T03:44:32.504Z,1016.55
2018-12-12T03:45:32.555Z,1016.57
2018-12-12T03:46:32.531Z,1016.57
2018-12-12T03:47:32.523Z,1016.70
2018-12-12T03:48:32.590Z,1016.70
2018-12-12T03:49:32.538Z,1016.62
2018-12-12T03:50:32.645Z,1016.68
2018-12-12T03:51:32.768Z,1016.69
2018-12-12T03:52:32.524Z,1016.67
2018-12-12T03:53:32.531Z,1016.61
2018-12-12T03:54:32.537Z,1016.69
2018-12-12T03:55:32.537Z,1016.67
2018-12-12T03:56:32.538Z,1016.68
2018-12-12T03:57:32.598Z,1016.64
2018-12-12T03:58:32.545Z,1016.75
2018-12-12T03:59:32.556Z,1016.65
2018-12-12T04:00:32.568Z,1016.77
2018-12-12T04:01:32.558Z,1016.83
2018-12-12T04:02:32.600Z,1016.75
2018-12-12T04:03:32.602Z,1016.75
2018-12-12T04:04:32.590Z,1016.82
2018-12-12T04:05:32.587Z,1016.89
2018-12-12T04:06:32.645Z,1016.87
2018-12-12T04:07:32.606Z,1016.89
2018-12-12T04:08:32.583Z,1016.91
2018-12-12T04:09:32.628Z,1016.95
2018-12-12T04:10:32.587Z,1016.93
2018-12-12T04:11:32.712Z,1017.03
2018-12-12T04:12:32.595Z,1016.95
2018-12-12T04:13:32.619Z,1016.99
2018-12-12T04:14:32.640Z,1016.93
2018-12-12T04:15:32.705Z,1016.99
2018-12-12T04:16:32.619Z,1017.01
2018-12-12T04:17:32.629Z,1016.97
2018-12-12T04:18:32.633Z,1016.92
2018-12-12T04:19:32.635Z,1016.97
2018-12-12T04:20:32.780Z,1016.98
2018-12-12T04:21:32.622Z,1017.00
2018-12-12T04:22:32.651Z,1017.02
2018-12-12T04:23:32.735Z,1017.05
2018-12-12T04:24:32.641Z,1017.06
2018-12-12T04:25:32.650Z,1017.12
2018-12-12T04:26:32.687Z,1017.08
2018-12-12T04:27:32.644Z,1017.09
2018-12-12T04:28:32.680Z,1017.09
2018-12-12T04:29:32.650Z,1017.11
2018-12-12T04:30:32.668Z,1017.08
2018-12-12T04:31:32.679Z,1017.10
2018-12-12T04:32:32.668Z,1017.11
2018-12-12T04:33:32.701Z,1017.08
2018-12-12T04:34:32.687Z,1017.07
2018-12-12T04:35:32.675Z,1017.06
2018-12-12T04:36:32.710Z,1017.05
2018-12-12T04:37:32.708Z,1017.04
2018-12-12T04:38:32.703Z,1017.10
2018-12-12T04:39:32.696Z,1017.08
2018-12-12T04:40:32.731Z,1017.07
2018-12-12T04:41:32.721Z,1017.08
2018-12-12T04:42:32.734Z,1017.11
2018-12-12T04:43:32.709Z,1017.13
2018-12-12T04:44:32.715Z,1017.18
2018-12-12T04:45:32.714Z,1017.16
2018-12-12T04:46:32.723Z,1017.13
2018-12-12T04:47:32.790Z,1017.19
2018-12-12T04:48:32.734Z,1017.17
2018-12-12T04:49:32.743Z,1017.23
2018-12-12T04:50:32.731Z,1017.26
2018-12-12T04:51:32.795Z,1017.20
2018-12-12T04:52:32.751Z,1017.21
2018-12-12T04:53:32.766Z,1017.16
2018-12-12T04:54:32.763Z,1017.21
2018-12-12T04:55:32.762Z,1017.25
2018-12-12T04:56:32.777Z,1017.22
2018-12-12T04:57:32.785Z,1017.16
2018-12-12T04:58:32.815Z,1017.20
2018-12-12T04:59:32.758Z,1017.21
2018-12-12T05:00:32.771Z,1017.16
2018-12-12T05:01:32.797Z,1017.26
2018-12-12T05:02:32.777Z,1017.28
2018-12-12T05:03:32.820Z,1017.23
2018-12-12T05:04:32.815Z,1017.22
2018-12-12T05:05:32.792Z,1017.20
2018-12-12T05:06:32.820Z,1017.20
2018-12-12T05:07:32.809Z,1017.24
2018-12-12T05:08:32.808Z,1017.24
2018-12-12T05:09:32.810Z,1017.30
2018-12-12T05:10:32.820Z,1017.30
2018-12-12T05:11:32.831Z,1017.26
2018-12-12T05:12:32.856Z,1017.25
2018-12-12T05:13:32.847Z,1017.24
2018-12-12T05:14:32.891Z,1017.29
2018-12-12T05:15:32.809Z,1017.28
2018-12-12T05:16:32.835Z,1017.33
2018-12-12T05:17:32.878Z,1017.33
2018-12-12T05:18:32.830Z,1017.34
2018-12-12T05:19:32.909Z,1017.37
2018-12-12T05:20:32.853Z,1017.36
2018-12-12T05:21:32.849Z,1017.38
2018-12-12T05:22:32.858Z,1017.38
2018-12-12T05:23:32.863Z,1017.45
2018-12-12T05:24:32.954Z,1017.42
2018-12-12T05:25:32.966Z,1017.46
2018-12-12T05:26:32.901Z,1017.49
2018-12-12T05:27:32.879Z,1017.52
2018-12-12T05:28:32.878Z,1017.44
2018-12-12T05:29:32.902Z,1017.51
2018-12-12T05:30:32.965Z,1017.49
2018-12-12T05:31:32.864Z,1017.48
2018-12-12T05:32:32.869Z,1017.51
2018-12-12T05:33:32.930Z,1017.49
2018-12-12T05:34:33.003Z,1017.56
2018-12-12T05:35:32.894Z,1017.53
2018-12-12T05:36:32.944Z,1017.56
2018-12-12T05:37:32.901Z,1017.61
2018-12-12T05:38:32.906Z,1017.64
2018-12-12T05:39:32.915Z,1017.65
2018-12-12T05:40:32.936Z,1017.63
2018-12-12T05:41:32.918Z,1017.64
2018-12-12T05:42:32.928Z,1017.66
2018-12-12T05:43:32.981Z,1017.63
2018-12-12T05:44:32.932Z,1017.66
2018-12-12T05:45:32.923Z,1017.68
2018-12-12T05:46:32.935Z,1017.63
2018-12-12T05:47:32.944Z,1017.67
2018-12-12T05:48:32.946Z,1017.65
2018-12-12T05:49:34.253Z,1017.65
2018-12-12T05:50:32.973Z,1017.64
2018-12-12T05:51:32.987Z,1017.61
2018-12-12T05:52:32.994Z,1017.64
2018-12-12T05:53:32.955Z,1017.65
2018-12-12T05:54:32.977Z,1017.66
2018-12-12T05:55:33.002Z,1017.64
2018-12-12T05:56:32.990Z,1017.67
2018-12-12T05:57:32.978Z,1017.65
2018-12-12T05:58:32.985Z,1017.71
2018-12-12T05:59:32.993Z,1017.72
2018-12-12T06:00:33.008Z,1017.65
2018-12-12T06:01:33.080Z,1017.68
2018-12-12T06:02:33.013Z,1017.67
2018-12-12T06:03:33.743Z,1017.71
2018-12-12T06:04:33.052Z,1017.70
2018-12-12T06:05:33.040Z,1017.68
2018-12-12T06:06:32.991Z,1017.69
2018-12-12T06:07:33.001Z,1017.72
2018-12-12T06:08:33.013Z,1017.77
2018-12-12T06:09:33.108Z,1017.77
2018-12-12T06:10:32.998Z,1017.75
2018-12-12T06:11:33.028Z,1017.78
2018-12-12T06:12:33.029Z,1017.77
2018-12-12T06:13:33.404Z,1017.79
2018-12-12T06:14:33.029Z,1017.83
2018-12-12T06:15:33.177Z,1017.87
2018-12-12T06:16:33.014Z,1017.87
2018-12-12T06:17:33.072Z,1017.86
2018-12-12T06:18:33.107Z,1017.92
2018-12-12T06:19:33.169Z,1017.97
2018-12-12T06:20:33.036Z,1017.96
2018-12-12T06:21:33.064Z,1017.96
2018-12-12T06:22:37.620Z,1017.92
2018-12-12T06:23:33.075Z,1017.91
2018-12-12T06:24:33.057Z,1017.93
2018-12-12T06:25:33.061Z,1017.92
2018-12-12T06:26:37.302Z,1017.90
2018-12-12T06:27:33.191Z,1017.90
2018-12-12T06:28:33.177Z,1017.89
2018-12-12T06:29:33.129Z,1017.90
2018-12-12T06:30:33.064Z,1017.91
2018-12-12T06:31:33.077Z,1017.93
2018-12-12T06:32:33.121Z,1017.95
2018-12-12T06:33:33.148Z,1017.91
2018-12-12T06:34:33.078Z,1018.01
2018-12-12T06:35:33.089Z,1017.97
2018-12-12T06:36:33.130Z,1017.97
2018-12-12T06:37:33.133Z,1018.07
2018-12-12T06:38:33.109Z,1017.99
2018-12-12T06:39:33.589Z,1018.00
2018-12-12T06:40:33.290Z,1018.04
2018-12-12T06:41:33.394Z,1018.01
2018-12-12T06:42:34.523Z,1018.01
2018-12-12T06:43:33.133Z,1018.08
2018-12-12T06:44:33.188Z,1018.18
2018-12-12T06:45:33.139Z,1018.10
2018-12-12T06:46:33.133Z,1018.16
2018-12-12T06:47:33.158Z,1018.13
2018-12-12T06:48:33.121Z,1018.17
2018-12-12T06:49:33.144Z,1018.23
2018-12-12T06:50:33.180Z,1018.18
2018-12-12T06:51:33.260Z,1018.21
2018-12-12T06:52:33.149Z,1018.20
2018-12-12T06:53:33.179Z,1018.23
2018-12-12T06:54:33.162Z,1018.31
2018-12-12T06:55:33.260Z,1018.31
2018-12-12T06:56:33.159Z,1018.33
2018-12-12T06:57:33.185Z,1018.33
2018-12-12T06:58:33.224Z,1018.30
2018-12-12T06:59:33.184Z,1018.34
2018-12-12T07:00:33.300Z,1018.31
2018-12-12T07:01:33.190Z,1018.36
2018-12-12T07:02:33.209Z,1018.38
2018-12-12T07:03:33.211Z,1018.45
2018-12-12T07:04:33.205Z,1018.42
2018-12-12T07:05:33.220Z,1018.39
2018-12-12T07:06:33.228Z,1018.42
2018-12-12T07:07:33.192Z,1018.39
2018-12-12T07:08:33.199Z,1018.44
2018-12-12T07:09:33.197Z,1018.47
2018-12-12T07:10:34.562Z,1018.46
2018-12-12T07:11:35.042Z,1018.44
2018-12-12T07:12:33.210Z,1018.46
2018-12-12T07:13:35.882Z,1018.53
2018-12-12T07:14:33.225Z,1018.47
2018-12-12T07:15:33.279Z,1018.50
2018-12-12T07:16:33.223Z,1018.54
2018-12-12T07:17:33.228Z,1018.59
2018-12-12T07:18:33.278Z,1018.56
2018-12-12T07:19:33.307Z,1018.51
2018-12-12T07:20:33.267Z,1018.57
2018-12-12T07:21:33.251Z,1018.61
2018-12-12T07:22:33.300Z,1018.59
2018-12-12T07:23:33.245Z,1018.58
2018-12-12T07:24:33.269Z,1018.61
2018-12-12T07:25:33.287Z,1018.57
2018-12-12T07:26:33.264Z,1018.60
2018-12-12T07:27:33.301Z,1018.62
2018-12-12T07:28:33.268Z,1018.64
2018-12-12T07:29:33.299Z,1018.66
2018-12-12T07:30:33.272Z,1018.64
2018-12-12T07:31:33.404Z,1018.62
2018-12-12T07:32:33.316Z,1018.64
2018-12-12T07:33:33.313Z,1018.71
2018-12-12T07:34:33.273Z,1018.71
2018-12-12T07:35:33.290Z,1018.72
2018-12-12T07:36:33.383Z,1018.69
2018-12-12T07:37:33.289Z,1018.68
2018-12-12T07:38:33.303Z,1018.70
2018-12-12T07:39:33.320Z,1018.75
2018-12-12T07:40:33.338Z,1018.76
2018-12-12T07:41:33.315Z,1018.73
2018-12-12T07:42:33.359Z,1018.74
2018-12-12T07:43:33.374Z,1018.72
2018-12-12T07:44:33.329Z,1018.76
2018-12-12T07:45:33.381Z,1018.77
2018-12-12T07:46:33.351Z,1018.77
2018-12-12T07:47:33.345Z,1018.84
2018-12-12T07:48:33.363Z,1018.82
2018-12-12T07:49:33.322Z,1018.82
2018-12-12T07:50:33.426Z,1018.85
2018-12-12T07:51:33.343Z,1018.83
2018-12-12T07:52:33.350Z,1018.90
2018-12-12T07:53:33.373Z,1018.89
2018-12-12T07:54:33.357Z,1018.89
2018-12-12T07:55:33.557Z,1018.88
2018-12-12T07:56:33.520Z,1018.90
2018-12-12T07:57:34.362Z,1018.90
2018-12-12T07:58:33.429Z,1018.86
2018-12-12T07:59:33.379Z,1018.93
2018-12-12T08:00:33.471Z,1018.91
2018-12-12T08:01:33.376Z,1018.89
2018-12-12T08:02:33.397Z,1018.96
2018-12-12T08:03:33.404Z,1018.94
2018-12-12T08:04:33.422Z,1018.99
2018-12-12T08:05:33.442Z,1019.03
2018-12-12T08:06:33.384Z,1019.07
2018-12-12T08:07:33.384Z,1019.06
2018-12-12T08:08:33.409Z,1019.06
2018-12-12T08:09:33.406Z,1019.10
2018-12-12T08:10:33.487Z,1019.03
2018-12-12T08:11:33.473Z,1019.08
2018-12-12T08:12:33.407Z,1019.05
2018-12-12T08:13:33.415Z,1019.05
2018-12-12T08:14:33.750Z,1018.98
2018-12-12T08:15:34.680Z,1018.97
2018-12-12T08:16:33.541Z,1019.01
2018-12-12T08:17:33.451Z,1019.00
2018-12-12T08:18:33.450Z,1019.07
2018-12-12T08:19:33.439Z,1019.05
2018-12-12T08:20:33.466Z,1019.09
2018-12-12T08:21:33.472Z,1019.06
2018-12-12T08:22:33.482Z,1019.08
2018-12-12T08:23:33.441Z,1019.04
2018-12-12T08:24:33.449Z,1019.10
2018-12-12T08:25:33.523Z,1019.08
2018-12-12T08:26:33.464Z,1019.11
2018-12-12T08:27:33.520Z,1019.07
2018-12-12T08:28:33.483Z,1019.11
2018-12-12T08:29:33.469Z,1019.12
2018-12-12T08:30:33.487Z,1019.07
2018-12-12T08:31:33.482Z,1019.09
2018-12-12T08:32:33.497Z,1019.11
2018-12-12T08:33:33.509Z,1019.08
2018-12-12T08:34:33.506Z,1019.09
2018-12-12T08:35:33.516Z,1019.08
2018-12-12T08:36:33.517Z,1019.09
2018-12-12T08:37:33.488Z,1019.09
2018-12-12T08:38:33.534Z,1019.08
2018-12-12T08:39:33.532Z,1019.10
2018-12-12T08:40:33.508Z,1019.07
2018-12-12T08:41:33.498Z,1019.09
2018-12-12T08:42:33.519Z,1019.12
2018-12-12T08:43:33.587Z,1019.16
2018-12-12T08:44:33.569Z,1019.17
2018-12-12T08:45:33.575Z,1019.20
2018-12-12T08:46:33.553Z,1019.21
2018-12-12T08:47:33.540Z,1019.24
2018-12-12T08:48:33.544Z,1019.26
2018-12-12T08:49:33.546Z,1019.24
2018-12-12T08:50:33.552Z,1019.20
2018-12-12T08:51:33.617Z,1019.23
2018-12-12T08:52:33.619Z,1019.22
2018-12-12T08:53:33.772Z,1019.24
2018-12-12T08:54:33.565Z,1019.22
2018-12-12T08:55:33.555Z,1019.26
2018-12-12T08:56:33.595Z,1019.30
2018-12-12T08:57:33.556Z,1019.25
2018-12-12T08:58:33.576Z,1019.32
2018-12-12T08:59:33.566Z,1019.31
2018-12-12T09:00:33.596Z,1019.33
2018-12-12T09:01:33.625Z,1019.32
2018-12-12T09:02:33.614Z,1019.39
2018-12-12T09:03:33.601Z,1019.37
2018-12-12T09:04:33.641Z,1019.40
2018-12-12T09:05:33.585Z,1019.43
2018-12-12T09:06:33.614Z,1019.36
2018-12-12T09:07:33.623Z,1019.44
2018-12-12T09:08:33.639Z,1019.42
2018-12-12T09:09:33.598Z,1019.42
2018-12-12T09:10:33.686Z,1019.44
2018-12-12T09:11:33.603Z,1019.43
2018-12-12T09:12:33.705Z,1019.44
2018-12-12T09:13:33.636Z,1019.47
2018-12-12T09:14:33.628Z,1019.51
2018-12-12T09:15:33.650Z,1019.47
2018-12-12T09:16:33.645Z,1019.48
2018-12-12T09:17:33.719Z,1019.50
2018-12-12T09:18:33.698Z,1019.51
2018-12-12T09:19:33.655Z,1019.53
2018-12-12T09:20:33.645Z,1019.54
2018-12-12T09:21:33.655Z,1019.55
2018-12-12T09:22:33.687Z,1019.61
2018-12-12T09:23:33.669Z,1019.54
2018-12-12T09:24:33.667Z,1019.57
2018-12-12T09:25:33.671Z,1019.57
2018-12-12T09:26:33.665Z,1019.57
2018-12-12T09:27:33.705Z,1019.54
2018-12-12T09:28:33.700Z,1019.65
2018-12-12T09:29:33.673Z,1019.59
2018-12-12T09:30:33.685Z,1019.55
2018-12-12T09:31:33.690Z,1019.56
2018-12-12T09:32:33.704Z,1019.56
2018-12-12T09:33:33.770Z,1019.60
2018-12-12T09:34:33.712Z,1019.59
2018-12-12T09:35:33.796Z,1019.64
2018-12-12T09:36:33.705Z,1019.61
2018-12-12T09:37:33.735Z,1019.64
2018-12-12T09:38:33.713Z,1019.58
2018-12-12T09:39:33.771Z,1019.62
2018-12-12T09:40:34.410Z,1019.66
2018-12-12T09:41:33.713Z,1019.63
2018-12-12T09:42:33.722Z,1019.62
2018-12-12T09:43:33.763Z,1019.54
2018-12-12T09:44:33.787Z,1019.53
2018-12-12T09:45:33.818Z,1019.62
2018-12-12T09:46:33.797Z,1019.57
2018-12-12T09:47:33.757Z,1019.56
2018-12-12T09:48:33.753Z,1019.62
2018-12-12T09:49:33.752Z,1019.59
2018-12-12T09:50:33.761Z,1019.58
2018-12-12T09:51:33.769Z,1019.65
2018-12-12T09:52:33.815Z,1019.58
2018-12-12T09:53:33.772Z,1019.57
2018-12-12T09:54:33.781Z,1019.64
2018-12-12T09:55:33.789Z,1019.64
2018-12-12T09:56:33.836Z,1019.69
2018-12-12T09:57:33.787Z,1019.62
2018-12-12T09:58:33.800Z,1019.63
2018-12-12T09:59:33.807Z,1019.61
2018-12-12T10:00:33.826Z,1019.65
2018-12-12T10:01:33.830Z,1019.71
2018-12-12T10:02:33.838Z,1019.68
2018-12-12T10:03:34.141Z,1019.68
2018-12-12T10:04:33.844Z,1019.72
2018-12-12T10:05:33.809Z,1019.65
2018-12-12T10:06:33.833Z,1019.64
2018-12-12T10:07:33.857Z,1019.67
2018-12-12T10:08:33.873Z,1019.65
2018-12-12T10:09:34.091Z,1019.71
2018-12-12T10:10:33.838Z,1019.68
2018-12-12T10:11:33.842Z,1019.68
2018-12-12T10:12:33.876Z,1019.74
2018-12-12T10:13:33.915Z,1019.59
2018-12-12T10:14:33.882Z,1019.63
2018-12-12T10:15:33.928Z,1019.63
2018-12-12T10:16:34.513Z,1019.62
2018-12-12T10:17:33.885Z,1019.67
2018-12-12T10:18:33.879Z,1019.67
2018-12-12T10:19:33.909Z,1019.65
2018-12-12T10:20:33.944Z,1019.67
2018-12-12T10:21:33.900Z,1019.60
2018-12-12T10:22:33.923Z,1019.60
2018-12-12T10:23:33.913Z,1019.65
2018-12-12T10:24:33.928Z,1019.64
2018-12-12T10:25:33.893Z,1019.65
2018-12-12T10:26:33.905Z,1019.64
2018-12-12T10:27:33.900Z,1019.64
2018-12-12T10:28:33.938Z,1019.67
2018-12-12T10:29:33.949Z,1019.62
2018-12-12T10:30:33.921Z,1019.62
2018-12-12T10:31:33.939Z,1019.59
2018-12-12T10:32:34.181Z,1019.56
2018-12-12T10:33:37.594Z,1019.59
2018-12-12T10:34:33.941Z,1019.62
2018-12-12T10:35:34.009Z,1019.63
2018-12-12T10:36:33.978Z,1019.67
2018-12-12T10:37:33.955Z,1019.66
2018-12-12T10:38:33.973Z,1019.63
2018-12-12T10:39:33.989Z,1019.69
2018-12-12T10:40:34.027Z,1019.70
2018-12-12T10:41:34.015Z,1019.67
2018-12-12T10:42:34.015Z,1019.70
2018-12-12T10:43:34.010Z,1019.64
2018-12-12T10:44:33.978Z,1019.68
2018-12-12T10:45:34.021Z,1019.70
2018-12-12T10:46:34.025Z,1019.67
2018-12-12T10:47:33.986Z,1019.69
2018-12-12T10:48:34.136Z,1019.73
2018-12-12T10:49:34.048Z,1019.76
2018-12-12T10:50:34.006Z,1019.74
2018-12-12T10:51:34.013Z,1019.72
2018-12-12T10:52:34.025Z,1019.68
2018-12-12T10:53:34.071Z,1019.73
2018-12-12T10:54:34.052Z,1019.68
2018-12-12T10:55:34.039Z,1019.66
2018-12-12T10:56:34.101Z,1019.73
2018-12-12T10:57:34.039Z,1019.71
2018-12-12T10:58:34.041Z,1019.65
2018-12-12T10:59:34.049Z,1019.71
2018-12-12T11:00:34.068Z,1019.72
2018-12-12T11:01:34.066Z,1019.73
2018-12-12T11:02:34.130Z,1019.74
2018-12-12T11:03:34.072Z,1019.72
2018-12-12T11:04:34.633Z,1019.72
2018-12-12T11:05:34.074Z,1019.80
2018-12-12T11:06:34.104Z,1019.79
2018-12-12T11:07:34.108Z,1019.72
2018-12-12T11:08:34.160Z,1019.72
2018-12-12T11:09:34.093Z,1019.77
2018-12-12T11:10:34.132Z,1019.74
2018-12-12T11:11:34.151Z,1019.80
2018-12-12T11:12:34.104Z,1019.77
2018-12-12T11:13:34.117Z,1019.72
2018-12-12T11:14:34.160Z,1019.77
2018-12-12T11:15:34.131Z,1019.76
2018-12-12T11:16:34.120Z,1019.73
2018-12-12T11:17:34.578Z,1019.78
2018-12-12T11:18:34.623Z,1019.86
2018-12-12T11:19:35.178Z,1019.81
2018-12-12T11:20:34.148Z,1019.77
2018-12-12T11:21:34.139Z,1019.70
2018-12-12T11:22:34.143Z,1019.77
2018-12-12T11:23:34.184Z,1019.78
2018-12-12T11:24:34.222Z,1019.80
2018-12-12T11:25:34.983Z,1019.81
2018-12-12T11:26:34.301Z,1019.80
2018-12-12T11:27:35.071Z,1019.86
2018-12-12T11:28:35.076Z,1019.76
2018-12-12T11:29:34.185Z,1019.78
2018-12-12T11:30:34.398Z,1019.80
2018-12-12T11:31:34.284Z,1019.73
2018-12-12T11:32:34.338Z,1019.72
2018-12-12T11:33:34.309Z,1019.74
2018-12-12T11:34:34.999Z,1019.75
2018-12-12T11:35:34.240Z,1019.80
2018-12-12T11:36:34.394Z,1019.83
2018-12-12T11:37:34.385Z,1019.81
2018-12-12T11:38:34.228Z,1019.84
2018-12-12T11:39:34.390Z,1019.83
2018-12-12T11:40:34.444Z,1019.84
2018-12-12T11:41:34.401Z,1019.78
2018-12-12T11:42:34.538Z,1019.80
2018-12-12T11:43:35.512Z,1019.74
2018-12-12T11:44:35.026Z,1019.75
2018-12-12T11:45:34.581Z,1019.79
2018-12-12T11:46:34.337Z,1019.77
2018-12-12T11:47:34.275Z,1019.75
2018-12-12T11:48:34.295Z,1019.72
2018-12-12T11:49:34.274Z,1019.79
2018-12-12T11:50:34.256Z,1019.74
2018-12-12T11:51:34.273Z,1019.77
2018-12-12T11:52:34.396Z,1019.76
2018-12-12T11:53:34.304Z,1019.74
2018-12-12T11:54:34.279Z,1019.71
2018-12-12T11:55:34.289Z,1019.74
2018-12-12T11:56:34.300Z,1019.72
2018-12-12T11:57:34.361Z,1019.77
2018-12-12T11:58:34.289Z,1019.76
2018-12-12T11:59:34.326Z,1019.77
2018-12-12T12:00:34.329Z,1019.76
2018-12-12T12:01:34.351Z,1019.75
2018-12-12T12:02:35.766Z,1019.72
2018-12-12T12:03:34.336Z,1019.71
2018-12-12T12:04:34.343Z,1019.70
2018-12-12T12:05:34.333Z,1019.70